sensor_id;sensor_type;location;lat;lon;timestamp;P1;durP1;ratioP1;P2;durP2;ratioP2
17753;SDS011;8999;48.994;9.150;2022-11-20T00:01:51;25.43;;;16.40;;
17753;SDS011;8999;48.994;9.150;2022-11-20T00:04:22;26.37;;;16.00;;
17753;SDS011;8999;48.994;9.150;2022-11-20T00:06:54;24.43;;;15.07;;
17753;SDS011;8999;48.994;9.150;2022-11-20T00:09:26;26.27;;;15.77;;
17753;SDS011;8999;48.994;9.150;2022-11-20T00:11:57;32.13;;;16.90;;
17753;SDS011;8999;48.994;9.150;2022-11-20T00:14:29;27.63;;;16.50;;
17753;SDS011;8999;48.994;9.150;2022-11-20T00:17:02;32.57;;;17.53;;
17753;SDS011;8999;48.994;9.150;2022-11-20T00:19:33;25.53;;;14.77;;
17753;SDS011;8999;48.994;9.150;2022-11-20T00:22:05;27.33;;;15.03;;
17753;SDS011;8999;48.994;9.150;2022-11-20T00:24:37;28.13;;;14.87;;
17753;SDS011;8999;48.994;9.150;2022-11-20T00:27:08;29.60;;;15.90;;
17753;SDS011;8999;48.994;9.150;2022-11-20T00:29:40;26.17;;;15.27;;
17753;SDS011;8999;48.994;9.150;2022-11-20T00:32:13;28.13;;;14.93;;
17753;SDS011;8999;48.994;9.150;2022-11-20T00:34:44;25.37;;;14.67;;
17753;SDS011;8999;48.994;9.150;2022-11-20T00:37:16;30.50;;;15.07;;
17753;SDS011;8999;48.994;9.150;2022-11-20T00:39:48;27.00;;;14.52;;
17753;SDS011;8999;48.994;9.150;2022-11-20T00:42:20;30.67;;;15.37;;
17753;SDS011;8999;48.994;9.150;2022-11-20T00:44:52;33.43;;;14.93;;
17753;SDS011;8999;48.994;9.150;2022-11-20T00:47:25;29.60;;;14.60;;
17753;SDS011;8999;48.994;9.150;2022-11-20T00:49:59;26.17;;;14.80;;
17753;SDS011;8999;48.994;9.150;2022-11-20T00:52:31;27.30;;;14.10;;
17753;SDS011;8999;48.994;9.150;2022-11-20T00:55:03;24.77;;;13.77;;
17753;SDS011;8999;48.994;9.150;2022-11-20T00:57:35;25.03;;;12.97;;
17753;SDS011;8999;48.994;9.150;2022-11-20T01:00:07;28.90;;;14.57;;
17753;SDS011;8999;48.994;9.150;2022-11-20T01:02:41;28.60;;;14.23;;
17753;SDS011;8999;48.994;9.150;2022-11-20T01:05:12;30.63;;;15.17;;
17753;SDS011;8999;48.994;9.150;2022-11-20T01:07:44;27.43;;;15.23;;
17753;SDS011;8999;48.994;9.150;2022-11-20T01:10:16;29.73;;;15.53;;
17753;SDS011;8999;48.994;9.150;2022-11-20T01:12:47;30.40;;;14.93;;
17753;SDS011;8999;48.994;9.150;2022-11-20T01:15:39;30.10;;;14.80;;
17753;SDS011;8999;48.994;9.150;2022-11-20T01:18:12;34.23;;;16.37;;
17753;SDS011;8999;48.994;9.150;2022-11-20T01:20:44;28.97;;;14.67;;
17753;SDS011;8999;48.994;9.150;2022-11-20T01:23:15;33.85;;;15.45;;
17753;SDS011;8999;48.994;9.150;2022-11-20T01:25:47;30.70;;;15.50;;
17753;SDS011;8999;48.994;9.150;2022-11-20T01:28:18;28.90;;;15.13;;
17753;SDS011;8999;48.994;9.150;2022-11-20T01:30:50;32.47;;;15.35;;
17753;SDS011;8999;48.994;9.150;2022-11-20T01:33:23;29.83;;;15.52;;
17753;SDS011;8999;48.994;9.150;2022-11-20T01:36:02;29.77;;;16.10;;
17753;SDS011;8999;48.994;9.150;2022-11-20T01:38:34;27.57;;;14.93;;
17753;SDS011;8999;48.994;9.150;2022-11-20T01:41:06;28.63;;;14.87;;
17753;SDS011;8999;48.994;9.150;2022-11-20T01:43:38;29.23;;;15.50;;
17753;SDS011;8999;48.994;9.150;2022-11-20T01:46:13;23.75;;;13.80;;
17753;SDS011;8999;48.994;9.150;2022-11-20T01:48:49;28.10;;;14.87;;
17753;SDS011;8999;48.994;9.150;2022-11-20T01:51:24;26.50;;;14.90;;
17753;SDS011;8999;48.994;9.150;2022-11-20T01:53:58;26.23;;;14.83;;
17753;SDS011;8999;48.994;9.150;2022-11-20T01:56:33;30.50;;;15.73;;
17753;SDS011;8999;48.994;9.150;2022-11-20T01:59:08;26.00;;;14.60;;
17753;SDS011;8999;48.994;9.150;2022-11-20T02:01:41;26.25;;;15.02;;
17753;SDS011;8999;48.994;9.150;2022-11-20T02:04:13;30.13;;;15.27;;
17753;SDS011;8999;48.994;9.150;2022-11-20T02:06:47;25.58;;;14.10;;
17753;SDS011;8999;48.994;9.150;2022-11-20T02:09:21;23.33;;;13.97;;
17753;SDS011;8999;48.994;9.150;2022-11-20T02:11:53;25.33;;;14.40;;
17753;SDS011;8999;48.994;9.150;2022-11-20T02:14:24;23.10;;;13.47;;
17753;SDS011;8999;48.994;9.150;2022-11-20T02:16:55;20.88;;;12.70;;
17753;SDS011;8999;48.994;9.150;2022-11-20T02:19:29;25.50;;;14.10;;
17753;SDS011;8999;48.994;9.150;2022-11-20T02:22:04;21.53;;;13.47;;
17753;SDS011;8999;48.994;9.150;2022-11-20T02:24:39;21.73;;;13.13;;
17753;SDS011;8999;48.994;9.150;2022-11-20T02:27:12;21.37;;;13.20;;
17753;SDS011;8999;48.994;9.150;2022-11-20T02:29:45;21.65;;;13.10;;
17753;SDS011;8999;48.994;9.150;2022-11-20T02:32:18;22.90;;;14.13;;
17753;SDS011;8999;48.994;9.150;2022-11-20T02:34:50;23.25;;;13.85;;
17753;SDS011;8999;48.994;9.150;2022-11-20T02:37:22;22.70;;;13.70;;
17753;SDS011;8999;48.994;9.150;2022-11-20T02:39:55;22.97;;;13.80;;
17753;SDS011;8999;48.994;9.150;2022-11-20T02:42:27;24.00;;;13.65;;
17753;SDS011;8999;48.994;9.150;2022-11-20T02:44:58;23.47;;;13.37;;
17753;SDS011;8999;48.994;9.150;2022-11-20T02:47:30;23.90;;;14.00;;
17753;SDS011;8999;48.994;9.150;2022-11-20T02:50:02;21.33;;;12.70;;
17753;SDS011;8999;48.994;9.150;2022-11-20T02:52:35;22.27;;;13.80;;
17753;SDS011;8999;48.994;9.150;2022-11-20T02:55:08;20.87;;;12.80;;
17753;SDS011;8999;48.994;9.150;2022-11-20T02:57:40;18.75;;;12.52;;
17753;SDS011;8999;48.994;9.150;2022-11-20T03:00:12;23.73;;;14.57;;
17753;SDS011;8999;48.994;9.150;2022-11-20T03:02:44;20.67;;;11.67;;
17753;SDS011;8999;48.994;9.150;2022-11-20T03:05:16;19.90;;;11.60;;
17753;SDS011;8999;48.994;9.150;2022-11-20T03:07:47;18.17;;;11.87;;
17753;SDS011;8999;48.994;9.150;2022-11-20T03:10:20;20.70;;;11.30;;
17753;SDS011;8999;48.994;9.150;2022-11-20T03:12:52;23.30;;;12.75;;
17753;SDS011;8999;48.994;9.150;2022-11-20T03:15:25;21.90;;;12.83;;
17753;SDS011;8999;48.994;9.150;2022-11-20T03:17:57;23.67;;;12.77;;
17753;SDS011;8999;48.994;9.150;2022-11-20T03:20:28;19.50;;;12.17;;
17753;SDS011;8999;48.994;9.150;2022-11-20T03:23:00;22.73;;;13.20;;
17753;SDS011;8999;48.994;9.150;2022-11-20T03:25:33;20.13;;;12.40;;
17753;SDS011;8999;48.994;9.150;2022-11-20T03:28:05;21.07;;;11.93;;
17753;SDS011;8999;48.994;9.150;2022-11-20T03:30:37;22.23;;;12.93;;
17753;SDS011;8999;48.994;9.150;2022-11-20T03:33:08;20.90;;;12.87;;
17753;SDS011;8999;48.994;9.150;2022-11-20T03:35:40;21.23;;;12.93;;
17753;SDS011;8999;48.994;9.150;2022-11-20T03:38:12;19.27;;;11.60;;
17753;SDS011;8999;48.994;9.150;2022-11-20T03:40:45;21.77;;;12.30;;
17753;SDS011;8999;48.994;9.150;2022-11-20T03:43:16;19.13;;;12.20;;
17753;SDS011;8999;48.994;9.150;2022-11-20T03:45:48;22.45;;;12.88;;
17753;SDS011;8999;48.994;9.150;2022-11-20T03:48:19;18.53;;;11.90;;
17753;SDS011;8999;48.994;9.150;2022-11-20T03:50:51;20.88;;;11.82;;
17753;SDS011;8999;48.994;9.150;2022-11-20T03:53:23;19.63;;;12.57;;
17753;SDS011;8999;48.994;9.150;2022-11-20T03:55:56;18.08;;;11.43;;
17753;SDS011;8999;48.994;9.150;2022-11-20T03:58:27;21.10;;;12.55;;
17753;SDS011;8999;48.994;9.150;2022-11-20T04:01:03;20.20;;;11.73;;
17753;SDS011;8999;48.994;9.150;2022-11-20T04:03:36;21.30;;;12.63;;
17753;SDS011;8999;48.994;9.150;2022-11-20T04:06:09;21.33;;;12.00;;
17753;SDS011;8999;48.994;9.150;2022-11-20T04:08:42;16.50;;;9.93;;
17753;SDS011;8999;48.994;9.150;2022-11-20T04:11:15;17.10;;;9.88;;
17753;SDS011;8999;48.994;9.150;2022-11-20T04:13:49;16.90;;;9.18;;
17753;SDS011;8999;48.994;9.150;2022-11-20T04:16:22;14.98;;;9.27;;
17753;SDS011;8999;48.994;9.150;2022-11-20T04:18:55;13.47;;;8.73;;
17753;SDS011;8999;48.994;9.150;2022-11-20T04:21:28;12.02;;;7.80;;
17753;SDS011;8999;48.994;9.150;2022-11-20T04:24:01;13.37;;;8.00;;
17753;SDS011;8999;48.994;9.150;2022-11-20T04:26:34;13.27;;;8.30;;
17753;SDS011;8999;48.994;9.150;2022-11-20T04:29:06;10.77;;;7.40;;
17753;SDS011;8999;48.994;9.150;2022-11-20T04:31:37;14.33;;;8.20;;
17753;SDS011;8999;48.994;9.150;2022-11-20T04:34:10;12.80;;;6.80;;
17753;SDS011;8999;48.994;9.150;2022-11-20T04:36:42;10.13;;;7.07;;
17753;SDS011;8999;48.994;9.150;2022-11-20T04:39:14;9.57;;;6.40;;
17753;SDS011;8999;48.994;9.150;2022-11-20T04:41:48;9.80;;;6.00;;
17753;SDS011;8999;48.994;9.150;2022-11-20T04:44:39;7.85;;;5.50;;
17753;SDS011;8999;48.994;9.150;2022-11-20T04:47:11;9.10;;;5.43;;
17753;SDS011;8999;48.994;9.150;2022-11-20T04:49:42;9.27;;;5.10;;
17753;SDS011;8999;48.994;9.150;2022-11-20T04:52:14;8.18;;;5.43;;
17753;SDS011;8999;48.994;9.150;2022-11-20T04:54:46;5.65;;;4.60;;
17753;SDS011;8999;48.994;9.150;2022-11-20T04:57:19;8.18;;;4.75;;
17753;SDS011;8999;48.994;9.150;2022-11-20T04:59:50;6.03;;;4.03;;
17753;SDS011;8999;48.994;9.150;2022-11-20T05:02:22;7.85;;;4.47;;
17753;SDS011;8999;48.994;9.150;2022-11-20T05:04:54;6.73;;;4.60;;
17753;SDS011;8999;48.994;9.150;2022-11-20T05:07:25;52.23;;;27.17;;
17753;SDS011;8999;48.994;9.150;2022-11-20T05:09:57;13.80;;;7.17;;
17753;SDS011;8999;48.994;9.150;2022-11-20T05:12:30;10.82;;;5.80;;
17753;SDS011;8999;48.994;9.150;2022-11-20T05:15:02;7.38;;;5.32;;
17753;SDS011;8999;48.994;9.150;2022-11-20T05:17:34;5.45;;;4.75;;
17753;SDS011;8999;48.994;9.150;2022-11-20T05:20:06;6.45;;;4.55;;
17753;SDS011;8999;48.994;9.150;2022-11-20T05:22:39;19.75;;;12.38;;
17753;SDS011;8999;48.994;9.150;2022-11-20T05:25:10;10.75;;;6.25;;
17753;SDS011;8999;48.994;9.150;2022-11-20T05:27:43;13.48;;;9.00;;
17753;SDS011;8999;48.994;9.150;2022-11-20T05:30:15;37.25;;;19.30;;
17753;SDS011;8999;48.994;9.150;2022-11-20T05:32:47;7.43;;;5.15;;
17753;SDS011;8999;48.994;9.150;2022-11-20T05:35:18;6.93;;;4.63;;
17753;SDS011;8999;48.994;9.150;2022-11-20T05:37:50;6.55;;;4.32;;
17753;SDS011;8999;48.994;9.150;2022-11-20T05:40:21;6.93;;;5.10;;
17753;SDS011;8999;48.994;9.150;2022-11-20T05:42:54;7.70;;;5.00;;
17753;SDS011;8999;48.994;9.150;2022-11-20T05:45:26;81.95;;;47.47;;
17753;SDS011;8999;48.994;9.150;2022-11-20T05:47:58;56.47;;;30.70;;
17753;SDS011;8999;48.994;9.150;2022-11-20T05:50:30;5.72;;;4.47;;
17753;SDS011;8999;48.994;9.150;2022-11-20T05:53:01;6.25;;;4.80;;
17753;SDS011;8999;48.994;9.150;2022-11-20T05:55:33;4.90;;;4.40;;
17753;SDS011;8999;48.994;9.150;2022-11-20T05:58:06;5.65;;;4.20;;
17753;SDS011;8999;48.994;9.150;2022-11-20T06:00:37;7.00;;;3.97;;
17753;SDS011;8999;48.994;9.150;2022-11-20T06:03:09;30.15;;;18.42;;
17753;SDS011;8999;48.994;9.150;2022-11-20T06:05:41;17.70;;;10.52;;
17753;SDS011;8999;48.994;9.150;2022-11-20T06:08:12;8.87;;;4.60;;
17753;SDS011;8999;48.994;9.150;2022-11-20T06:10:44;5.60;;;4.40;;
17753;SDS011;8999;48.994;9.150;2022-11-20T06:13:17;4.82;;;4.32;;
17753;SDS011;8999;48.994;9.150;2022-11-20T06:15:48;6.80;;;4.00;;
17753;SDS011;8999;48.994;9.150;2022-11-20T06:18:20;4.70;;;4.20;;
17753;SDS011;8999;48.994;9.150;2022-11-20T06:20:58;5.57;;;3.70;;
17753;SDS011;8999;48.994;9.150;2022-11-20T06:23:31;5.67;;;3.90;;
17753;SDS011;8999;48.994;9.150;2022-11-20T06:26:04;5.88;;;3.78;;
17753;SDS011;8999;48.994;9.150;2022-11-20T06:28:38;5.83;;;3.80;;
17753;SDS011;8999;48.994;9.150;2022-11-20T06:31:10;5.88;;;3.60;;
17753;SDS011;8999;48.994;9.150;2022-11-20T06:33:43;4.10;;;3.53;;
17753;SDS011;8999;48.994;9.150;2022-11-20T06:36:15;6.80;;;4.32;;
17753;SDS011;8999;48.994;9.150;2022-11-20T06:38:49;4.87;;;3.40;;
17753;SDS011;8999;48.994;9.150;2022-11-20T06:41:20;5.28;;;3.63;;
17753;SDS011;8999;48.994;9.150;2022-11-20T06:43:54;8.20;;;4.18;;
17753;SDS011;8999;48.994;9.150;2022-11-20T06:46:25;7.03;;;3.90;;
17753;SDS011;8999;48.994;9.150;2022-11-20T06:48:57;5.83;;;4.37;;
17753;SDS011;8999;48.994;9.150;2022-11-20T06:51:29;6.40;;;4.57;;
17753;SDS011;8999;48.994;9.150;2022-11-20T06:54:00;4.75;;;3.67;;
17753;SDS011;8999;48.994;9.150;2022-11-20T06:56:32;4.13;;;3.50;;
17753;SDS011;8999;48.994;9.150;2022-11-20T06:59:05;4.63;;;3.58;;
17753;SDS011;8999;48.994;9.150;2022-11-20T07:01:37;3.80;;;3.40;;
17753;SDS011;8999;48.994;9.150;2022-11-20T07:04:09;4.97;;;3.95;;
17753;SDS011;8999;48.994;9.150;2022-11-20T07:06:40;8.15;;;4.43;;
17753;SDS011;8999;48.994;9.150;2022-11-20T07:09:12;7.25;;;4.13;;
17753;SDS011;8999;48.994;9.150;2022-11-20T07:11:43;6.20;;;3.95;;
17753;SDS011;8999;48.994;9.150;2022-11-20T07:14:16;5.90;;;4.20;;
17753;SDS011;8999;48.994;9.150;2022-11-20T07:16:48;5.22;;;4.22;;
17753;SDS011;8999;48.994;9.150;2022-11-20T07:19:19;11.77;;;4.43;;
17753;SDS011;8999;48.994;9.150;2022-11-20T07:21:51;4.87;;;3.97;;
17753;SDS011;8999;48.994;9.150;2022-11-20T07:24:23;5.13;;;3.83;;
17753;SDS011;8999;48.994;9.150;2022-11-20T07:26:54;4.35;;;3.95;;
17753;SDS011;8999;48.994;9.150;2022-11-20T07:29:27;6.55;;;4.30;;
17753;SDS011;8999;48.994;9.150;2022-11-20T07:31:59;6.60;;;4.65;;
17753;SDS011;8999;48.994;9.150;2022-11-20T07:34:30;5.55;;;4.32;;
17753;SDS011;8999;48.994;9.150;2022-11-20T07:37:02;5.53;;;4.00;;
17753;SDS011;8999;48.994;9.150;2022-11-20T07:39:33;5.57;;;3.78;;
17753;SDS011;8999;48.994;9.150;2022-11-20T07:42:05;5.50;;;3.85;;
17753;SDS011;8999;48.994;9.150;2022-11-20T07:44:39;5.40;;;4.05;;
17753;SDS011;8999;48.994;9.150;2022-11-20T07:47:10;5.55;;;4.05;;
17753;SDS011;8999;48.994;9.150;2022-11-20T07:49:42;5.27;;;4.23;;
17753;SDS011;8999;48.994;9.150;2022-11-20T07:52:14;5.73;;;3.57;;
17753;SDS011;8999;48.994;9.150;2022-11-20T07:54:46;5.17;;;3.70;;
17753;SDS011;8999;48.994;9.150;2022-11-20T07:57:17;86.63;;;48.78;;
17753;SDS011;8999;48.994;9.150;2022-11-20T07:59:50;14.98;;;9.68;;
17753;SDS011;8999;48.994;9.150;2022-11-20T08:02:22;4.38;;;3.17;;
17753;SDS011;8999;48.994;9.150;2022-11-20T08:04:54;30.45;;;18.70;;
17753;SDS011;8999;48.994;9.150;2022-11-20T08:07:26;10.57;;;6.15;;
17753;SDS011;8999;48.994;9.150;2022-11-20T08:09:57;5.22;;;2.70;;
17753;SDS011;8999;48.994;9.150;2022-11-20T08:12:29;4.68;;;3.17;;
17753;SDS011;8999;48.994;9.150;2022-11-20T08:15:19;4.10;;;2.80;;
17753;SDS011;8999;48.994;9.150;2022-11-20T08:17:51;5.00;;;2.90;;
17753;SDS011;8999;48.994;9.150;2022-11-20T08:20:23;5.38;;;2.88;;
17753;SDS011;8999;48.994;9.150;2022-11-20T08:22:57;4.35;;;2.53;;
17753;SDS011;8999;48.994;9.150;2022-11-20T08:25:29;2.88;;;2.13;;
17753;SDS011;8999;48.994;9.150;2022-11-20T08:28:02;24.88;;;15.55;;
17753;SDS011;8999;48.994;9.150;2022-11-20T08:30:36;8.45;;;4.72;;
17753;SDS011;8999;48.994;9.150;2022-11-20T08:33:08;2.75;;;2.05;;
17753;SDS011;8999;48.994;9.150;2022-11-20T08:35:40;1.60;;;1.40;;
17753;SDS011;8999;48.994;9.150;2022-11-20T08:38:12;2.28;;;1.45;;
17753;SDS011;8999;48.994;9.150;2022-11-20T08:40:44;2.70;;;1.60;;
17753;SDS011;8999;48.994;9.150;2022-11-20T08:43:36;2.05;;;1.63;;
17753;SDS011;8999;48.994;9.150;2022-11-20T08:46:09;2.78;;;1.85;;
17753;SDS011;8999;48.994;9.150;2022-11-20T08:48:41;2.28;;;2.08;;
17753;SDS011;8999;48.994;9.150;2022-11-20T08:51:12;2.70;;;1.88;;
17753;SDS011;8999;48.994;9.150;2022-11-20T08:53:44;2.63;;;1.73;;
17753;SDS011;8999;48.994;9.150;2022-11-20T08:56:18;2.83;;;1.80;;
17753;SDS011;8999;48.994;9.150;2022-11-20T08:58:50;4.07;;;2.15;;
17753;SDS011;8999;48.994;9.150;2022-11-20T09:01:23;2.83;;;1.83;;
17753;SDS011;8999;48.994;9.150;2022-11-20T09:03:55;2.72;;;1.70;;
17753;SDS011;8999;48.994;9.150;2022-11-20T09:06:27;3.47;;;2.45;;
17753;SDS011;8999;48.994;9.150;2022-11-20T09:08:59;2.38;;;2.08;;
17753;SDS011;8999;48.994;9.150;2022-11-20T09:11:30;4.05;;;2.70;;
17753;SDS011;8999;48.994;9.150;2022-11-20T09:14:02;2.80;;;2.30;;
17753;SDS011;8999;48.994;9.150;2022-11-20T09:16:35;3.25;;;2.20;;
17753;SDS011;8999;48.994;9.150;2022-11-20T09:19:07;3.53;;;2.50;;
17753;SDS011;8999;48.994;9.150;2022-11-20T09:21:39;4.15;;;2.20;;
17753;SDS011;8999;48.994;9.150;2022-11-20T09:24:11;3.50;;;2.53;;
17753;SDS011;8999;48.994;9.150;2022-11-20T09:26:42;4.05;;;2.53;;
17753;SDS011;8999;48.994;9.150;2022-11-20T09:29:14;4.60;;;3.08;;
17753;SDS011;8999;48.994;9.150;2022-11-20T09:31:47;5.13;;;2.95;;
17753;SDS011;8999;48.994;9.150;2022-11-20T09:34:19;4.22;;;2.35;;
17753;SDS011;8999;48.994;9.150;2022-11-20T09:36:50;3.30;;;2.70;;
17753;SDS011;8999;48.994;9.150;2022-11-20T09:39:22;3.35;;;2.60;;
17753;SDS011;8999;48.994;9.150;2022-11-20T09:42:03;3.88;;;2.80;;
17753;SDS011;8999;48.994;9.150;2022-11-20T09:44:55;2.70;;;2.40;;
17753;SDS011;8999;48.994;9.150;2022-11-20T09:47:37;2.55;;;2.17;;
17753;SDS011;8999;48.994;9.150;2022-11-20T09:50:23;3.20;;;2.35;;
17753;SDS011;8999;48.994;9.150;2022-11-20T09:53:03;3.40;;;2.92;;
17753;SDS011;8999;48.994;9.150;2022-11-20T09:55:42;5.45;;;3.90;;
17753;SDS011;8999;48.994;9.150;2022-11-20T09:58:16;4.82;;;3.42;;
17753;SDS011;8999;48.994;9.150;2022-11-20T10:00:56;4.28;;;3.20;;
17753;SDS011;8999;48.994;9.150;2022-11-20T10:03:33;5.13;;;3.85;;
17753;SDS011;8999;48.994;9.150;2022-11-20T10:06:10;4.78;;;4.10;;
17753;SDS011;8999;48.994;9.150;2022-11-20T10:08:45;5.35;;;3.72;;
17753;SDS011;8999;48.994;9.150;2022-11-20T10:11:21;4.93;;;2.80;;
17753;SDS011;8999;48.994;9.150;2022-11-20T10:14:02;3.78;;;2.88;;
17753;SDS011;8999;48.994;9.150;2022-11-20T10:16:42;6.28;;;2.83;;
17753;SDS011;8999;48.994;9.150;2022-11-20T10:19:27;2.90;;;2.35;;
17753;SDS011;8999;48.994;9.150;2022-11-20T10:22:06;3.15;;;2.45;;
17753;SDS011;8999;48.994;9.150;2022-11-20T10:24:52;3.72;;;3.10;;
17753;SDS011;8999;48.994;9.150;2022-11-20T10:27:34;3.80;;;2.85;;
17753;SDS011;8999;48.994;9.150;2022-11-20T10:30:13;5.18;;;3.13;;
17753;SDS011;8999;48.994;9.150;2022-11-20T10:32:47;4.82;;;2.92;;
17753;SDS011;8999;48.994;9.150;2022-11-20T10:35:23;4.82;;;3.35;;
17753;SDS011;8999;48.994;9.150;2022-11-20T10:37:59;4.63;;;3.38;;
17753;SDS011;8999;48.994;9.150;2022-11-20T10:40:33;3.90;;;3.20;;
17753;SDS011;8999;48.994;9.150;2022-11-20T10:43:08;5.57;;;3.28;;
17753;SDS011;8999;48.994;9.150;2022-11-20T10:45:45;4.53;;;2.83;;
17753;SDS011;8999;48.994;9.150;2022-11-20T10:48:21;2.97;;;2.42;;
17753;SDS011;8999;48.994;9.150;2022-11-20T10:50:57;2.83;;;2.40;;
17753;SDS011;8999;48.994;9.150;2022-11-20T10:53:43;3.50;;;2.63;;
17753;SDS011;8999;48.994;9.150;2022-11-20T10:56:21;8.68;;;5.32;;
17753;SDS011;8999;48.994;9.150;2022-11-20T10:59:02;3.63;;;2.38;;
17753;SDS011;8999;48.994;9.150;2022-11-20T11:01:53;4.57;;;2.60;;
17753;SDS011;8999;48.994;9.150;2022-11-20T11:04:30;3.38;;;2.28;;
17753;SDS011;8999;48.994;9.150;2022-11-20T11:07:15;6.28;;;2.80;;
17753;SDS011;8999;48.994;9.150;2022-11-20T11:09:48;5.43;;;3.00;;
17753;SDS011;8999;48.994;9.150;2022-11-20T11:12:22;4.10;;;2.90;;
17753;SDS011;8999;48.994;9.150;2022-11-20T11:14:55;4.80;;;3.70;;
17753;SDS011;8999;48.994;9.150;2022-11-20T11:17:29;4.15;;;3.45;;
17753;SDS011;8999;48.994;9.150;2022-11-20T11:20:04;6.55;;;3.92;;
17753;SDS011;8999;48.994;9.150;2022-11-20T11:22:44;4.82;;;3.78;;
17753;SDS011;8999;48.994;9.150;2022-11-20T11:25:19;6.90;;;3.92;;
17753;SDS011;8999;48.994;9.150;2022-11-20T11:27:53;5.88;;;3.78;;
17753;SDS011;8999;48.994;9.150;2022-11-20T11:30:26;5.25;;;3.90;;
17753;SDS011;8999;48.994;9.150;2022-11-20T11:33:03;7.30;;;4.22;;
17753;SDS011;8999;48.994;9.150;2022-11-20T11:35:38;5.57;;;3.60;;
17753;SDS011;8999;48.994;9.150;2022-11-20T11:38:19;5.38;;;3.80;;
17753;SDS011;8999;48.994;9.150;2022-11-20T11:40:53;34.00;;;22.27;;
17753;SDS011;8999;48.994;9.150;2022-11-20T11:43:25;5.22;;;3.72;;
17753;SDS011;8999;48.994;9.150;2022-11-20T11:46:27;7.30;;;3.75;;
17753;SDS011;8999;48.994;9.150;2022-11-20T11:49:08;7.63;;;4.78;;
17753;SDS011;8999;48.994;9.150;2022-11-20T11:51:47;4.57;;;2.88;;
17753;SDS011;8999;48.994;9.150;2022-11-20T11:54:30;4.32;;;2.90;;
17753;SDS011;8999;48.994;9.150;2022-11-20T11:57:09;4.80;;;2.30;;
17753;SDS011;8999;48.994;9.150;2022-11-20T11:59:51;5.35;;;2.67;;
17753;SDS011;8999;48.994;9.150;2022-11-20T12:02:29;3.90;;;2.20;;
17753;SDS011;8999;48.994;9.150;2022-11-20T12:05:09;2.67;;;1.90;;
17753;SDS011;8999;48.994;9.150;2022-11-20T12:07:48;5.35;;;2.15;;
17753;SDS011;8999;48.994;9.150;2022-11-20T12:10:28;4.22;;;2.03;;
17753;SDS011;8999;48.994;9.150;2022-11-20T12:13:13;5.70;;;1.92;;
17753;SDS011;8999;48.994;9.150;2022-11-20T12:15:49;4.50;;;2.47;;
17753;SDS011;8999;48.994;9.150;2022-11-20T12:18:21;3.63;;;1.63;;
17753;SDS011;8999;48.994;9.150;2022-11-20T12:20:57;4.38;;;2.05;;
17753;SDS011;8999;48.994;9.150;2022-11-20T12:23:36;4.25;;;2.00;;
17753;SDS011;8999;48.994;9.150;2022-11-20T12:26:18;4.03;;;1.90;;
17753;SDS011;8999;48.994;9.150;2022-11-20T12:29:01;4.88;;;2.35;;
17753;SDS011;8999;48.994;9.150;2022-11-20T12:31:40;4.07;;;2.60;;
17753;SDS011;8999;48.994;9.150;2022-11-20T12:34:25;4.38;;;1.73;;
17753;SDS011;8999;48.994;9.150;2022-11-20T12:37:04;4.60;;;1.98;;
17753;SDS011;8999;48.994;9.150;2022-11-20T12:39:42;1.88;;;1.50;;
17753;SDS011;8999;48.994;9.150;2022-11-20T12:45:32;8.30;;;5.90;;
17753;SDS011;8999;48.994;9.150;2022-11-20T12:54:14;4.25;;;1.98;;
17753;SDS011;8999;48.994;9.150;2022-11-20T12:57:06;6.88;;;1.77;;
17753;SDS011;8999;48.994;9.150;2022-11-20T12:59:48;5.95;;;2.20;;
17753;SDS011;8999;48.994;9.150;2022-11-20T13:02:31;3.67;;;1.58;;
17753;SDS011;8999;48.994;9.150;2022-11-20T13:05:21;3.20;;;1.75;;
17753;SDS011;8999;48.994;9.150;2022-11-20T13:07:56;4.75;;;1.55;;
17753;SDS011;8999;48.994;9.150;2022-11-20T13:10:31;3.13;;;2.13;;
17753;SDS011;8999;48.994;9.150;2022-11-20T13:13:07;4.82;;;1.52;;
17753;SDS011;8999;48.994;9.150;2022-11-20T13:15:47;3.53;;;1.33;;
17753;SDS011;8999;48.994;9.150;2022-11-20T13:18:21;4.45;;;1.88;;
17753;SDS011;8999;48.994;9.150;2022-11-20T13:20:53;14.07;;;7.85;;
17753;SDS011;8999;48.994;9.150;2022-11-20T13:23:25;5.15;;;1.73;;
17753;SDS011;8999;48.994;9.150;2022-11-20T13:26:05;4.63;;;1.65;;
17753;SDS011;8999;48.994;9.150;2022-11-20T13:28:37;4.63;;;1.35;;
17753;SDS011;8999;48.994;9.150;2022-11-20T13:31:21;2.95;;;1.38;;
17753;SDS011;8999;48.994;9.150;2022-11-20T13:34:01;2.85;;;1.40;;
17753;SDS011;8999;48.994;9.150;2022-11-20T13:36:34;3.67;;;1.27;;
17753;SDS011;8999;48.994;9.150;2022-11-20T13:39:08;7.13;;;3.20;;
17753;SDS011;8999;48.994;9.150;2022-11-20T13:41:40;5.45;;;1.98;;
17753;SDS011;8999;48.994;9.150;2022-11-20T13:44:13;4.13;;;1.55;;
17753;SDS011;8999;48.994;9.150;2022-11-20T13:46:47;4.57;;;1.48;;
17753;SDS011;8999;48.994;9.150;2022-11-20T13:49:21;7.65;;;2.67;;
17753;SDS011;8999;48.994;9.150;2022-11-20T13:51:58;5.43;;;1.90;;
17753;SDS011;8999;48.994;9.150;2022-11-20T13:57:37;3.78;;;1.55;;
17753;SDS011;8999;48.994;9.150;2022-11-20T14:00:17;4.18;;;1.52;;
17753;SDS011;8999;48.994;9.150;2022-11-20T14:02:57;4.80;;;1.58;;
17753;SDS011;8999;48.994;9.150;2022-11-20T14:05:33;4.25;;;1.70;;
17753;SDS011;8999;48.994;9.150;2022-11-20T14:08:17;3.35;;;1.45;;
17753;SDS011;8999;48.994;9.150;2022-11-20T14:11:05;3.97;;;1.75;;
17753;SDS011;8999;48.994;9.150;2022-11-20T14:13:56;5.78;;;2.55;;
17753;SDS011;8999;48.994;9.150;2022-11-20T14:16:29;3.20;;;1.50;;
17753;SDS011;8999;48.994;9.150;2022-11-20T14:22:17;43.30;;;25.38;;
17753;SDS011;8999;48.994;9.150;2022-11-20T14:25:00;4.05;;;1.58;;
17753;SDS011;8999;48.994;9.150;2022-11-20T14:27:35;4.72;;;1.60;;
17753;SDS011;8999;48.994;9.150;2022-11-20T14:30:12;2.97;;;1.20;;
17753;SDS011;8999;48.994;9.150;2022-11-20T14:32:46;1.92;;;1.10;;
17753;SDS011;8999;48.994;9.150;2022-11-20T14:35:20;6.28;;;1.40;;
17753;SDS011;8999;48.994;9.150;2022-11-20T14:37:56;1.85;;;0.80;;
17753;SDS011;8999;48.994;9.150;2022-11-20T14:40:28;3.13;;;1.25;;
17753;SDS011;8999;48.994;9.150;2022-11-20T14:43:01;1.98;;;1.00;;
17753;SDS011;8999;48.994;9.150;2022-11-20T14:45:47;1.90;;;1.10;;
17753;SDS011;8999;48.994;9.150;2022-11-20T14:48:24;13.77;;;5.15;;
17753;SDS011;8999;48.994;9.150;2022-11-20T14:50:59;3.15;;;1.17;;
17753;SDS011;8999;48.994;9.150;2022-11-20T14:53:32;2.53;;;0.90;;
17753;SDS011;8999;48.994;9.150;2022-11-20T14:56:04;2.75;;;1.08;;
17753;SDS011;8999;48.994;9.150;2022-11-20T14:58:36;3.22;;;0.98;;
17753;SDS011;8999;48.994;9.150;2022-11-20T15:01:11;1.90;;;1.00;;
17753;SDS011;8999;48.994;9.150;2022-11-20T15:03:44;8.60;;;4.63;;
17753;SDS011;8999;48.994;9.150;2022-11-20T15:06:16;2.97;;;1.30;;
17753;SDS011;8999;48.994;9.150;2022-11-20T15:08:58;3.50;;;1.33;;
17753;SDS011;8999;48.994;9.150;2022-11-20T15:11:30;2.28;;;0.95;;
17753;SDS011;8999;48.994;9.150;2022-11-20T15:14:03;3.58;;;1.30;;
17753;SDS011;8999;48.994;9.150;2022-11-20T15:16:37;4.90;;;1.25;;
17753;SDS011;8999;48.994;9.150;2022-11-20T15:19:12;1.90;;;1.05;;
17753;SDS011;8999;48.994;9.150;2022-11-20T15:21:48;1.85;;;1.10;;
17753;SDS011;8999;48.994;9.150;2022-11-20T15:24:21;3.05;;;1.20;;
17753;SDS011;8999;48.994;9.150;2022-11-20T15:26:53;3.25;;;1.42;;
17753;SDS011;8999;48.994;9.150;2022-11-20T15:29:25;2.75;;;1.20;;
17753;SDS011;8999;48.994;9.150;2022-11-20T15:31:57;2.80;;;1.52;;
17753;SDS011;8999;48.994;9.150;2022-11-20T15:34:28;3.65;;;1.40;;
17753;SDS011;8999;48.994;9.150;2022-11-20T15:37:00;3.08;;;1.40;;
17753;SDS011;8999;48.994;9.150;2022-11-20T15:39:33;4.70;;;1.90;;
17753;SDS011;8999;48.994;9.150;2022-11-20T15:42:05;1.50;;;1.23;;
17753;SDS011;8999;48.994;9.150;2022-11-20T15:44:36;3.53;;;1.30;;
17753;SDS011;8999;48.994;9.150;2022-11-20T15:47:08;3.22;;;1.88;;
17753;SDS011;8999;48.994;9.150;2022-11-20T15:49:40;3.67;;;1.88;;
17753;SDS011;8999;48.994;9.150;2022-11-20T15:52:12;4.47;;;2.75;;